Time;durP1;ratioP1;P1;durP2;ratioP2;P2;SDS_P1;SDS_P2;PMS_P1;PMS_P2;Temp;Humidity;BMP_temperature;BMP_pressure;BME280_temperature;BME280_humidity;BME280_pressure;Samples;Min_cycle;Max_cycle;Signal;HPM_P1;HPM_P2
2021/08/19 00:01:41;;;;;;;9.82;7.13;;;17.00;98.80;;;;;;4968763;28;20034;-79
2021/08/19 00:04:07;;;;;;;8.35;6.35;;;17.00;98.90;;;;;;5008487;28;20045;-79
2021/08/19 00:06:33;;;;;;;11.38;6.65;;;17.00;99.00;;;;;;4979711;28;20035;-79
2021/08/19 00:08:58;;;;;;;9.02;6.55;;;17.00;98.90;;;;;;5019833;28;20112;-79
2021/08/19 00:11:24;;;;;;;8.80;7.28;;;16.90;98.90;;;;;;4983830;28;20034;-79
2021/08/19 00:13:49;;;;;;;10.70;8.05;;;17.00;99.10;;;;;;5017194;28;20057;-79
2021/08/19 00:16:15;;;;;;;10.32;7.32;;;17.00;99.20;;;;;;4969732;28;20030;-79
2021/08/19 00:18:40;;;;;;;13.13;7.55;;;17.00;99.60;;;;;;4983990;28;20092;-79
2021/08/19 00:21:06;;;;;;;12.77;7.97;;;16.90;99.30;;;;;;4984108;28;20469;-79
2021/08/19 00:23:32;;;;;;;9.23;7.55;;;16.90;99.40;;;;;;4965154;28;20038;-78
2021/08/19 00:25:57;;;;;;;11.45;6.85;;;16.90;99.30;;;;;;4968380;28;20532;-79
2021/08/19 00:28:23;;;;;;;9.23;5.40;;;17.00;99.50;;;;;;4968802;28;20038;-78
2021/08/19 00:30:48;;;;;;;12.70;8.10;;;16.90;99.50;;;;;;4966366;28;20031;-79
2021/08/19 00:33:14;;;;;;;9.88;7.35;;;16.90;99.60;;;;;;4983017;28;20026;-78
2021/08/19 00:35:39;;;;;;;13.68;10.10;;;17.00;99.50;;;;;;5018909;28;20034;-80
2021/08/19 00:38:05;;;;;;;12.77;9.63;;;17.00;99.70;;;;;;4994959;28;20488;-79
2021/08/19 00:40:31;;;;;;;15.88;9.18;;;16.90;99.60;;;;;;4970496;28;20037;-79
2021/08/19 00:42:59;;;;;;;11.70;9.27;;;16.90;99.40;;;;;;4999354;28;20397;-78
2021/08/19 00:45:25;;;;;;;13.65;8.45;;;16.90;99.70;;;;;;4984587;28;20026;-79
2021/08/19 00:47:51;;;;;;;10.80;7.90;;;16.90;99.50;;;;;;4983909;28;20034;-79
2021/08/19 00:50:17;;;;;;;15.57;8.75;;;17.00;99.80;;;;;;4986179;28;20045;-79
2021/08/19 00:52:42;;;;;;;12.75;5.10;;;16.90;99.70;;;;;;4997354;28;20050;-78
2021/08/19 00:55:09;;;;;;;14.07;8.10;;;16.80;99.80;;;;;;4995902;28;20044;-79
2021/08/19 00:57:36;;;;;;;12.82;6.40;;;16.80;99.80;;;;;;4975733;28;20033;-79
2021/08/19 01:00:01;;;;;;;14.18;8.15;;;16.90;99.80;;;;;;4983711;28;20038;-79
2021/08/19 01:02:27;;;;;;;13.60;10.00;;;16.90;99.90;;;;;;4964221;28;20129;-78
2021/08/19 01:04:52;;;;;;;14.25;8.50;;;16.90;99.70;;;;;;4963660;28;20044;-79
2021/08/19 01:07:18;;;;;;;15.65;8.25;;;16.90;99.80;;;;;;4981950;28;20030;-78
2021/08/19 01:09:44;;;;;;;14.75;9.13;;;16.80;99.90;;;;;;4970136;28;20037;-79
2021/08/19 01:12:10;;;;;;;8.23;5.75;;;16.80;99.90;;;;;;4970149;28;20026;-79
2021/08/19 01:14:36;;;;;;;14.38;10.90;;;16.80;99.90;;;;;;4969130;28;20096;-78
2021/08/19 01:17:08;;;;;;;11.18;7.80;;;16.80;99.90;;;;;;4969391;28;20038;-78
2021/08/19 01:19:34;;;;;;;20.80;12.55;;;16.80;99.90;;;;;;4967232;28;20030;-79
2021/08/19 01:22:00;;;;;;;14.95;11.50;;;16.90;99.90;;;;;;4971176;28;20029;-79
2021/08/19 01:24:25;;;;;;;13.50;9.48;;;16.90;99.90;;;;;;4997872;28;20092;-79
2021/08/19 01:26:51;;;;;;;14.48;10.25;;;16.80;99.90;;;;;;5003879;28;20460;-79
2021/08/19 01:29:17;;;;;;;17.40;11.82;;;16.80;99.80;;;;;;4987466;28;20514;-78
2021/08/19 01:31:54;;;;;;;17.77;11.65;;;16.90;99.90;;;;;;4971691;28;20477;-79
2021/08/19 01:34:20;;;;;;;16.48;10.90;;;16.90;99.90;;;;;;5005644;28;20037;-80
2021/08/19 01:36:45;;;;;;;19.80;11.85;;;16.90;99.90;;;;;;5001284;28;20528;-79
2021/08/19 01:39:11;;;;;;;20.55;11.75;;;16.90;99.90;;;;;;5006955;28;20037;-79
2021/08/19 01:41:36;;;;;;;15.43;11.05;;;16.90;99.90;;;;;;4984618;28;20085;-79
2021/08/19 01:44:02;;;;;;;18.45;10.35;;;16.90;99.90;;;;;;4987586;28;20042;-79
2021/08/19 01:46:28;;;;;;;15.73;11.35;;;17.00;99.90;;;;;;4986005;28;20031;-78
2021/08/19 01:48:53;;;;;;;16.73;10.95;;;16.90;99.80;;;;;;5023107;28;20040;-79
2021/08/19 01:51:19;;;;;;;17.85;9.25;;;16.90;99.90;;;;;;4972924;28;20026;-79
2021/08/19 01:53:51;;;;;;;14.90;11.00;;;16.90;99.90;;;;;;4974270;28;20029;-79
2021/08/19 01:56:20;;;;;;;17.30;11.27;;;16.90;99.80;;;;;;5018861;28;20487;-79
2021/08/19 01:58:46;;;;;;;14.60;10.23;;;16.90;99.80;;;;;;5000319;28;20034;-79
2021/08/19 02:01:18;;;;;;;17.73;10.75;;;17.00;99.90;;;;;;4989527;28;20034;-79
2021/08/19 02:03:43;;;;;;;18.98;10.52;;;16.90;99.90;;;;;;4988164;28;20190;-79
2021/08/19 02:06:09;;;;;;;6.47;4.00;;;16.90;99.90;;;;;;5005057;28;20560;-79
2021/08/19 02:08:34;;;;;;;13.05;9.35;;;16.80;99.90;;;;;;5001433;28;20118;-79
2021/08/19 02:11:00;;;;;;;15.85;10.68;;;16.80;99.90;;;;;;4973893;28;20509;-81
2021/08/19 02:13:25;;;;;;;13.85;10.32;;;16.80;99.90;;;;;;5001549;28;20025;-80
2021/08/19 02:15:57;;;;;;;16.08;10.20;;;16.80;99.90;;;;;;5004671;28;20041;-79
2021/08/19 02:18:23;;;;;;;16.83;9.95;;;16.90;99.90;;;;;;5006839;28;20075;-79
2021/08/19 02:20:48;;;;;;;14.15;8.75;;;16.80;99.90;;;;;;5021923;28;20134;-80
2021/08/19 02:23:14;;;;;;;18.17;11.23;;;16.70;99.90;;;;;;4985575;28;20076;-80
2021/08/19 02:25:39;;;;;;;12.15;9.45;;;16.80;99.90;;;;;;4971096;28;20030;-80
2021/08/19 02:28:05;;;;;;;15.02;9.35;;;16.80;99.90;;;;;;4991798;28;20030;-80
2021/08/19 02:30:31;;;;;;;13.77;7.80;;;16.80;99.90;;;;;;4986057;28;20034;-81
2021/08/19 02:32:56;;;;;;;13.75;9.95;;;16.80;99.90;;;;;;4970533;28;20073;-80
2021/08/19 02:35:28;;;;;;;13.27;9.48;;;16.80;99.90;;;;;;4974805;28;20057;-80
2021/08/19 02:37:54;;;;;;;14.40;8.90;;;16.70;99.90;;;;;;5010579;28;20068;-80
2021/08/19 02:40:21;;;;;;;16.52;11.93;;;16.70;99.90;;;;;;4985944;28;20026;-81
2021/08/19 02:42:46;;;;;;;15.80;9.95;;;16.70;99.90;;;;;;4973586;28;20037;-81
2021/08/19 02:45:12;;;;;;;15.80;9.93;;;16.70;99.90;;;;;;4988837;28;20026;-80
2021/08/19 02:47:37;;;;;;;16.77;10.55;;;16.70;99.90;;;;;;4988011;28;20042;-81
2021/08/19 02:50:03;;;;;;;15.77;8.18;;;16.80;99.90;;;;;;4973326;28;20115;-80
2021/08/19 02:52:29;;;;;;;10.40;6.60;;;16.70;99.90;;;;;;4970456;28;20022;-81
2021/08/19 02:54:54;;;;;;;10.43;7.35;;;16.70;99.90;;;;;;4987401;28;20030;-80
2021/08/19 02:57:20;;;;;;;19.38;11.85;;;16.70;99.90;;;;;;4965645;28;20390;-81
2021/08/19 02:59:45;;;;;;;15.73;10.55;;;16.70;99.90;;;;;;4992552;28;20547;-80
2021/08/19 03:02:11;;;;;;;12.85;10.27;;;16.70;99.90;;;;;;4984413;28;20034;-81
2021/08/19 03:04:37;;;;;;;13.77;10.55;;;16.70;99.90;;;;;;5012668;28;20394;-80
2021/08/19 03:07:02;;;;;;;21.30;12.60;;;16.80;99.90;;;;;;5019475;28;20375;-81
2021/08/19 03:09:28;;;;;;;21.85;11.30;;;16.60;99.90;;;;;;5003794;28;20485;-81
2021/08/19 03:11:53;;;;;;;20.05;13.20;;;16.70;99.90;;;;;;4992200;28;20022;-81
2021/08/19 03:14:19;;;;;;;17.92;9.85;;;16.60;99.90;;;;;;4966245;28;20027;-80
2021/08/19 03:16:44;;;;;;;15.38;10.40;;;16.60;99.90;;;;;;4996734;28;20030;-80
2021/08/19 03:19:10;;;;;;;18.70;10.43;;;16.60;99.90;;;;;;5006258;28;20038;-80
2021/08/19 03:21:37;;;;;;;18.58;10.75;;;16.60;99.90;;;;;;4996010;28;20421;-80
2021/08/19 03:24:03;;;;;;;14.75;9.40;;;16.60;99.90;;;;;;4986390;28;20117;-80
2021/08/19 03:26:30;;;;;;;14.18;10.38;;;16.50;99.90;;;;;;4967453;28;20030;-80
2021/08/19 03:28:56;;;;;;;14.00;11.05;;;16.50;99.90;;;;;;5020527;28;20034;-79
2021/08/19 03:31:21;;;;;;;12.65;9.73;;;16.60;99.90;;;;;;4998043;28;20514;-80
2021/08/19 03:33:47;;;;;;;15.05;10.82;;;16.60;99.90;;;;;;5021926;28;20041;-82
2021/08/19 03:36:12;;;;;;;16.95;11.43;;;16.60;99.90;;;;;;4983514;28;20503;-80
2021/08/19 03:38:38;;;;;;;23.80;13.10;;;16.60;99.90;;;;;;4982281;28;20030;-80
2021/08/19 03:41:03;;;;;;;13.70;10.02;;;16.60;99.90;;;;;;5002367;28;20129;-80
2021/08/19 03:43:29;;;;;;;14.30;10.75;;;16.50;99.90;;;;;;4978299;28;20512;-81
2021/08/19 03:45:54;;;;;;;18.02;12.15;;;16.60;99.90;;;;;;5003093;28;20025;-80
2021/08/19 03:48:21;;;;;;;23.83;13.55;;;16.50;99.90;;;;;;4987143;28;20038;-80
2021/08/19 03:50:47;;;;;;;15.35;11.25;;;16.50;99.90;;;;;;4966131;28;20494;-80
2021/08/19 03:53:12;;;;;;;12.43;9.48;;;16.60;99.90;;;;;;4970254;28;20033;-80
2021/08/19 03:55:38;;;;;;;10.68;6.95;;;16.50;99.90;;;;;;5003755;28;20442;-80
2021/08/19 03:58:03;;;;;;;20.02;11.98;;;16.50;99.90;;;;;;5010850;28;20117;-80
2021/08/19 04:00:29;;;;;;;21.02;13.27;;;16.50;99.90;;;;;;4969097;28;20036;-80
2021/08/19 04:02:55;;;;;;;19.77;14.18;;;16.50;99.90;;;;;;4986366;28;20157;-82
2021/08/19 04:05:22;;;;;;;15.05;11.65;;;16.50;99.90;;;;;;4986094;28;20113;-80
2021/08/19 04:07:47;;;;;;;21.05;13.73;;;16.50;99.90;;;;;;4974214;28;20030;-80
2021/08/19 04:10:13;;;;;;;20.63;12.70;;;16.40;99.90;;;;;;5017554;28;20049;-80
2021/08/19 04:12:38;;;;;;;16.98;10.27;;;16.50;99.90;;;;;;4981313;28;20034;-80
2021/08/19 04:15:05;;;;;;;21.45;14.85;;;16.40;99.90;;;;;;4969130;28;20033;-80
2021/08/19 04:17:31;;;;;;;18.60;14.02;;;16.50;99.90;;;;;;4982257;28;20041;-79
2021/08/19 04:19:56;;;;;;;19.42;13.07;;;16.40;99.90;;;;;;4964240;28;20038;-80
2021/08/19 04:22:22;;;;;;;15.48;11.80;;;16.40;99.90;;;;;;4974663;28;20096;-80
2021/08/19 04:24:47;;;;;;;21.67;13.68;;;16.40;99.90;;;;;;4965404;28;20501;-80
2021/08/19 04:27:13;;;;;;;25.85;16.98;;;16.40;99.90;;;;;;4967477;28;20037;-79
2021/08/19 04:29:38;;;;;;;20.02;10.38;;;16.50;99.90;;;;;;4968752;28;20034;-79
2021/08/19 04:32:04;;;;;;;27.25;16.38;;;16.50;99.90;;;;;;4969673;28;20113;-80
2021/08/19 04:34:44;;;;;;;28.45;18.10;;;16.50;99.90;;;;;;5019744;28;20030;-79
2021/08/19 04:37:09;;;;;;;26.90;17.10;;;16.40;99.90;;;;;;4984763;28;20036;-80
2021/08/19 04:39:35;;;;;;;25.42;16.48;;;16.50;99.90;;;;;;4980246;28;20772;-80
2021/08/19 04:42:00;;;;;;;21.95;15.20;;;16.50;99.90;;;;;;4998321;28;20468;-80
2021/08/19 04:44:26;;;;;;;27.83;18.33;;;16.50;99.90;;;;;;4987743;28;20053;-81
2021/08/19 04:46:51;;;;;;;18.27;13.60;;;16.50;99.90;;;;;;5022632;28;20061;-81
2021/08/19 04:49:17;;;;;;;20.42;15.43;;;16.50;99.90;;;;;;4990388;28;20347;-80
2021/08/19 04:51:43;;;;;;;16.35;9.70;;;16.40;99.90;;;;;;5005915;28;20379;-80
2021/08/19 04:54:09;;;;;;;20.17;11.35;;;16.40;99.90;;;;;;4971791;28;20124;-80
2021/08/19 04:56:37;;;;;;;23.45;14.38;;;16.40;99.90;;;;;;4996293;28;20644;-80
2021/08/19 04:59:07;;;;;;;23.55;16.70;;;16.50;99.90;;;;;;4989937;28;20044;-80
2021/08/19 05:01:33;;;;;;;26.60;15.32;;;16.50;99.90;;;;;;5005033;28;20485;-80
2021/08/19 05:03:59;;;;;;;21.27;16.73;;;16.50;99.90;;;;;;5020462;28;20030;-81
2021/08/19 05:06:27;;;;;;;22.02;15.18;;;16.50;99.90;;;;;;4971611;28;20108;-80
2021/08/19 05:08:54;;;;;;;22.95;14.73;;;16.50;99.90;;;;;;5009245;28;20117;-81
2021/08/19 05:11:20;;;;;;;15.98;9.25;;;16.40;99.90;;;;;;4992626;28;20037;-80
2021/08/19 05:13:47;;;;;;;18.90;12.88;;;16.50;99.90;;;;;;5002529;28;20036;-81
2021/08/19 05:16:13;;;;;;;18.42;11.57;;;16.50;99.90;;;;;;4993046;28;20033;-81
2021/08/19 05:18:40;;;;;;;17.05;12.98;;;16.40;99.90;;;;;;4988948;28;20397;-81
2021/08/19 05:21:06;;;;;;;23.05;12.90;;;16.40;99.90;;;;;;4987095;28;20034;-80
2021/08/19 05:23:41;;;;;;;21.42;14.52;;;16.40;99.90;;;;;;4977126;28;20039;-80
2021/08/19 05:26:06;;;;;;;16.10;11.32;;;16.50;99.90;;;;;;4990382;28;20475;-80
2021/08/19 05:28:32;;;;;;;17.30;12.20;;;16.40;99.90;;;;;;5000085;28;20129;-80
2021/08/19 05:30:57;;;;;;;20.52;12.70;;;16.40;99.90;;;;;;5006691;28;20022;-81
2021/08/19 05:33:23;;;;;;;13.93;8.32;;;16.40;99.90;;;;;;4985775;28;20290;-81
2021/08/19 05:35:48;;;;;;;22.48;14.82;;;16.40;99.90;;;;;;4986912;28;20509;-80
2021/08/19 05:38:14;;;;;;;17.08;12.32;;;16.40;99.90;;;;;;4987239;28;20040;-80
2021/08/19 05:40:40;;;;;;;23.27;14.93;;;16.40;99.90;;;;;;4976877;28;21171;-80
2021/08/19 05:43:06;;;;;;;14.93;8.75;;;16.40;99.90;;;;;;4992263;28;20050;-81
2021/08/19 05:45:34;;;;;;;21.17;12.38;;;16.50;99.90;;;;;;4973954;28;20505;-81
2021/08/19 05:48:01;;;;;;;19.15;9.73;;;16.40;99.90;;;;;;4987787;28;20449;-79
2021/08/19 05:50:30;;;;;;;22.38;14.02;;;16.40;99.90;;;;;;4991937;28;20026;-80
2021/08/19 05:53:05;;;;;;;19.17;12.65;;;16.40;99.90;;;;;;5009490;28;20508;-80
2021/08/19 05:55:30;;;;;;;22.55;11.50;;;16.40;99.90;;;;;;4991111;28;20076;-80
2021/08/19 05:57:56;;;;;;;27.33;17.48;;;16.40;99.90;;;;;;4990528;28;20050;-80
2021/08/19 06:00:22;;;;;;;20.30;13.40;;;16.50;99.90;;;;;;4989591;28;20031;-81
2021/08/19 06:02:51;;;;;;;21.90;9.38;;;16.40;99.90;;;;;;4997357;28;20466;-80
2021/08/19 06:05:16;;;;;;;22.42;14.52;;;16.40;99.90;;;;;;4987314;28;20030;-80
2021/08/19 06:07:42;;;;;;;18.42;11.27;;;16.40;99.90;;;;;;4989834;28;20042;-80
2021/08/19 06:10:08;;;;;;;20.73;14.02;;;16.40;99.90;;;;;;4974833;28;20046;-81
2021/08/19 06:12:35;;;;;;;19.80;13.77;;;16.40;99.90;;;;;;4987893;28;20030;-79
2021/08/19 06:15:00;;;;;;;21.27;12.85;;;16.50;99.90;;;;;;4976493;28;20038;-80
2021/08/19 06:17:26;;;;;;;22.35;14.02;;;16.40;99.90;;;;;;5004814;28;20397;-79
2021/08/19 06:19:51;;;;;;;10.00;5.32;;;16.50;99.90;;;;;;5000344;28;20030;-81
2021/08/19 06:22:17;;;;;;;16.33;12.00;;;16.40;99.90;;;;;;5006136;28;20080;-80
2021/08/19 06:24:42;;;;;;;18.58;13.20;;;16.50;99.90;;;;;;5001566;28;20113;-79
2021/08/19 06:27:08;;;;;;;15.93;9.23;;;16.50;99.90;;;;;;4990258;28;20429;-79
2021/08/19 06:29:34;;;;;;;16.17;13.02;;;16.50;99.90;;;;;;5003233;28;20060;-79
2021/08/19 06:31:59;;;;;;;16.63;11.15;;;16.50;99.90;;;;;;5010726;28;20034;-80
2021/08/19 06:34:31;;;;;;;17.30;10.20;;;16.60;99.90;;;;;;4973123;28;20030;-79
2021/08/19 06:36:56;;;;;;;16.98;11.25;;;16.50;99.90;;;;;;4991032;28;20050;-80
2021/08/19 06:39:22;;;;;;;14.45;11.50;;;16.60;99.90;;;;;;4990572;28;20062;-81
2021/08/19 06:41:47;;;;;;;19.80;11.95;;;16.60;99.90;;;;;;5005901;28;20050;-80
2021/08/19 06:44:13;;;;;;;17.25;11.73;;;16.60;99.90;;;;;;4985375;28;20042;-79
2021/08/19 06:46:38;;;;;;;18.10;11.65;;;16.60;99.90;;;;;;4988643;28;20029;-80
2021/08/19 06:49:04;;;;;;;12.02;7.43;;;16.60;99.90;;;;;;4990930;28;20041;-80
2021/08/19 06:51:32;;;;;;;13.75;10.93;;;16.60;99.90;;;;;;4989482;28;20480;-80
2021/08/19 06:53:58;;;;;;;18.20;10.63;;;16.60;99.90;;;;;;4974220;28;20037;-80
2021/08/19 06:56:23;;;;;;;16.48;11.88;;;16.70;99.90;;;;;;4975187;28;20034;-80
2021/08/19 06:58:49;;;;;;;15.18;11.18;;;16.80;99.90;;;;;;5005292;28;20033;-80
2021/08/19 07:01:15;;;;;;;17.73;11.50;;;16.80;99.90;;;;;;4988049;28;20026;-81
2021/08/19 07:03:40;;;;;;;17.40;11.40;;;16.80;99.90;;;;;;4972974;28;20030;-81
2021/08/19 07:06:16;;;;;;;18.17;12.68;;;16.90;99.90;;;;;;4986944;28;20079;-79
2021/08/19 07:08:41;;;;;;;14.05;10.70;;;16.90;99.90;;;;;;5003714;28;20038;-79
2021/08/19 07:11:07;;;;;;;16.08;10.50;;;17.00;99.90;;;;;;4989736;28;20529;-80
2021/08/19 07:13:33;;;;;;;16.05;10.95;;;17.00;99.90;;;;;;4971494;28;20093;-80
2021/08/19 07:15:58;;;;;;;18.52;10.68;;;17.10;99.90;;;;;;4979303;28;20438;-79
2021/08/19 07:18:24;;;;;;;15.18;10.65;;;17.10;99.90;;;;;;4967646;28;20038;-79
2021/08/19 07:20:49;;;;;;;16.50;11.13;;;17.10;99.90;;;;;;5006875;28;20597;-80
2021/08/19 07:23:15;;;;;;;16.63;11.90;;;17.20;99.90;;;;;;4969628;28;20034;-79
2021/08/19 07:25:43;;;;;;;18.25;11.40;;;17.20;99.90;;;;;;5005071;28;20100;-79
2021/08/19 07:28:09;;;;;;;17.73;10.48;;;17.20;99.90;;;;;;4981931;28;20038;-79
2021/08/19 07:30:35;;;;;;;14.93;10.20;;;17.30;99.90;;;;;;4981709;28;20109;-78
2021/08/19 07:33:03;;;;;;;9.70;6.28;;;17.30;99.90;;;;;;4990831;28;20034;-79
2021/08/19 07:35:29;;;;;;;18.10;11.60;;;17.30;99.90;;;;;;4978874;28;20033;-79
2021/08/19 07:37:55;;;;;;;16.42;11.13;;;17.30;99.90;;;;;;4974809;28;20045;-80
2021/08/19 07:40:22;;;;;;;17.23;12.15;;;17.40;99.90;;;;;;4998782;28;20045;-79
2021/08/19 07:42:50;;;;;;;15.35;6.93;;;17.40;99.90;;;;;;5019029;28;20060;-79
2021/08/19 07:45:16;;;;;;;16.88;11.10;;;17.40;99.90;;;;;;5001030;28;20057;-78
2021/08/19 07:47:42;;;;;;;15.25;9.07;;;17.50;99.90;;;;;;4989154;28;20292;-80
2021/08/19 07:50:09;;;;;;;10.90;7.18;;;17.50;99.90;;;;;;4989173;28;20042;-79
2021/08/19 07:52:35;;;;;;;15.93;8.23;;;17.60;99.90;;;;;;4996200;28;20038;-79
2021/08/19 07:55:01;;;;;;;15.50;11.15;;;17.60;99.90;;;;;;4971531;28;20117;-79
2021/08/19 07:57:27;;;;;;;10.02;7.28;;;17.60;99.90;;;;;;4987557;28;20578;-79
2021/08/19 07:59:53;;;;;;;13.98;9.05;;;17.70;99.90;;;;;;4978944;28;20030;-79
2021/08/19 08:02:19;;;;;;;18.85;8.65;;;17.80;99.90;;;;;;4977498;28;20106;-79
2021/08/19 08:04:44;;;;;;;16.80;10.88;;;17.90;99.90;;;;;;5005691;28;20030;-79
2021/08/19 08:07:10;;;;;;;9.40;6.28;;;18.00;99.90;;;;;;4971759;28;20092;-80
2021/08/19 08:09:35;;;;;;;18.52;9.82;;;17.90;99.90;;;;;;5006749;28;20433;-79
2021/08/19 08:12:01;;;;;;;16.17;11.18;;;17.90;99.90;;;;;;4983889;28;20065;-79
2021/08/19 08:14:26;;;;;;;12.75;10.07;;;18.00;99.90;;;;;;4986619;28;20108;-79
2021/08/19 08:16:52;;;;;;;14.95;10.00;;;18.00;99.90;;;;;;4984395;28;20026;-78
2021/08/19 08:19:17;;;;;;;16.48;10.75;;;18.10;99.90;;;;;;4984274;28;20113;-79
2021/08/19 08:21:43;;;;;;;13.55;10.95;;;18.00;99.90;;;;;;5024925;28;20038;-78
2021/08/19 08:24:10;;;;;;;18.02;13.20;;;18.00;99.90;;;;;;5001134;28;20042;-79
2021/08/19 08:26:36;;;;;;;18.13;9.48;;;17.90;99.90;;;;;;5005541;28;20032;-79
2021/08/19 08:29:02;;;;;;;14.40;10.38;;;17.90;99.90;;;;;;4986737;28;20421;-79
2021/08/19 08:31:29;;;;;;;16.73;11.30;;;17.80;99.90;;;;;;5007339;28;20030;-79
2021/08/19 08:33:54;;;;;;;21.17;10.43;;;17.80;99.90;;;;;;4975067;28;20379;-79
2021/08/19 08:36:22;;;;;;;14.25;8.52;;;17.80;99.90;;;;;;4985755;28;20104;-80
2021/08/19 08:38:48;;;;;;;15.65;10.82;;;17.80;99.90;;;;;;4970687;28;20086;-80
2021/08/19 08:41:14;;;;;;;23.85;11.57;;;17.70;99.90;;;;;;4987829;28;20583;-79
2021/08/19 08:43:40;;;;;;;16.50;10.75;;;17.70;99.90;;;;;;4991266;28;20100;-79
2021/08/19 08:46:10;;;;;;;17.70;10.60;;;17.60;99.90;;;;;;5008529;28;20038;-81
2021/08/19 08:48:36;;;;;;;16.17;10.55;;;17.50;99.90;;;;;;4989844;28;20030;-80
2021/08/19 08:51:01;;;;;;;19.67;11.45;;;17.50;99.90;;;;;;4987616;28;20186;-79
2021/08/19 08:53:27;;;;;;;13.73;8.57;;;17.50;99.90;;;;;;5010943;28;20453;-79
2021/08/19 08:55:52;;;;;;;18.20;10.35;;;17.60;99.90;;;;;;4989499;28;20549;-78
2021/08/19 08:58:20;;;;;;;18.17;11.63;;;17.40;99.90;;;;;;4993934;28;20481;-79
2021/08/19 09:00:46;;;;;;;15.77;11.38;;;17.40;99.90;;;;;;4990516;28;20033;-80
2021/08/19 09:03:13;;;;;;;23.45;12.27;;;17.30;99.90;;;;;;4985147;28;20120;-78
2021/08/19 09:05:43;;;;;;;18.05;12.00;;;17.30;99.90;;;;;;5024568;28;20083;-78
2021/08/19 09:08:13;;;;;;;15.27;10.63;;;17.30;99.90;;;;;;4987426;28;20049;-79
2021/08/19 09:10:39;;;;;;;22.70;13.98;;;17.20;99.90;;;;;;4983716;28;20027;-79
2021/08/19 09:13:09;;;;;;;17.80;12.18;;;17.20;99.90;;;;;;4973378;28;20049;-79
2021/08/19 09:15:34;;;;;;;24.67;16.02;;;17.20;99.90;;;;;;5008328;28;20037;-78
2021/08/19 09:18:02;;;;;;;19.85;13.68;;;17.20;99.90;;;;;;4972461;28;20140;-80
2021/08/19 09:20:34;;;;;;;21.50;14.25;;;17.20;99.90;;;;;;5023320;28;20281;-79
2021/08/19 09:23:05;;;;;;;16.10;11.70;;;17.20;99.90;;;;;;4991357;28;20038;-79
2021/08/19 09:25:32;;;;;;;26.67;15.77;;;17.20;99.90;;;;;;4975325;28;20504;-79
2021/08/19 09:28:12;;;;;;;26.17;15.73;;;17.20;99.90;;;;;;4990484;28;20501;-79
2021/08/19 09:30:39;;;;;;;18.42;12.35;;;17.30;99.90;;;;;;4999496;28;20186;-79
2021/08/19 09:33:06;;;;;;;24.40;14.25;;;17.30;99.90;;;;;;4973984;28;20151;-80
2021/08/19 09:35:31;;;;;;;16.77;10.88;;;17.30;99.90;;;;;;4974191;28;20547;-79
2021/08/19 09:37:57;;;;;;;26.05;16.75;;;17.30;99.90;;;;;;5006121;28;20037;-80
2021/08/19 09:40:23;;;;;;;17.55;9.05;;;17.40;99.90;;;;;;5006178;28;20054;-80
2021/08/19 09:42:48;;;;;;;24.02;15.20;;;17.30;99.90;;;;;;4989409;28;20750;-79
2021/08/19 09:45:18;;;;;;;18.02;11.50;;;17.40;99.90;;;;;;4965114;28;20035;-80
2021/08/19 09:47:44;;;;;;;16.42;10.30;;;17.40;99.90;;;;;;4974509;28;20477;-79
2021/08/19 09:50:23;;;;;;;18.63;12.30;;;17.40;99.90;;;;;;4975809;28;20127;-79
2021/08/19 09:52:50;;;;;;;20.08;12.93;;;17.50;99.90;;;;;;5003283;28;20393;-80
2021/08/19 09:55:33;;;;;;;19.90;10.23;;;17.30;99.90;;;;;;4985482;28;20687;-80
2021/08/19 09:58:00;;;;;;;21.38;14.38;;;17.30;99.90;;;;;;4989420;28;20041;-81
2021/08/19 10:00:30;;;;;;;15.75;12.45;;;17.30;99.90;;;;;;4988255;28;20031;-79
2021/08/19 10:02:55;;;;;;;17.77;12.52;;;17.40;99.90;;;;;;4987071;28;20092;-80
2021/08/19 10:05:21;;;;;;;26.45;17.95;;;17.40;99.90;;;;;;5012019;28;20437;-79
2021/08/19 10:07:46;;;;;;;16.63;8.93;;;17.40;99.90;;;;;;4989460;28;20114;-80
2021/08/19 10:10:12;;;;;;;17.20;12.27;;;17.40;99.90;;;;;;4972044;28;20184;-80
2021/08/19 10:12:47;;;;;;;17.05;12.18;;;17.50;99.90;;;;;;4973318;28;20462;-80
2021/08/19 10:15:13;;;;;;;18.50;13.50;;;17.50;99.90;;;;;;4973498;28;20509;-80
2021/08/19 10:17:44;;;;;;;20.85;14.73;;;17.60;99.90;;;;;;4986462;28;20117;-80
2021/08/19 10:20:11;;;;;;;18.85;13.93;;;17.80;99.90;;;;;;4991273;28;20524;-81
2021/08/19 10:22:37;;;;;;;16.38;10.73;;;17.90;99.90;;;;;;4986705;28;20038;-80
2021/08/19 10:25:05;;;;;;;20.00;10.95;;;18.10;99.90;;;;;;4966129;28;20523;-80
2021/08/19 10:27:32;;;;;;;20.17;14.20;;;18.40;99.90;;;;;;4981696;28;20034;-80
2021/08/19 10:30:03;;;;;;;18.90;14.05;;;18.50;99.90;;;;;;4983970;28;20034;-80
2021/08/19 10:32:33;;;;;;;12.43;7.28;;;18.80;99.90;;;;;;4986275;28;20041;-80
2021/08/19 10:35:06;;;;;;;17.42;12.98;;;18.90;99.90;;;;;;4988257;28;20109;-80
2021/08/19 10:37:47;;;;;;;20.42;10.90;;;19.10;99.90;;;;;;5002974;28;20062;-80
2021/08/19 10:42:47;;;;;;;20.38;11.68;;;19.80;99.90;;;;;;5004824;28;20034;-80
2021/08/19 10:45:28;;;;;;;15.32;11.38;;;20.00;99.90;;;;;;5005064;28;20493;-80
2021/08/19 10:47:54;;;;;;;14.60;11.27;;;20.20;99.90;;;;;;4996541;28;20065;-80
2021/08/19 10:50:27;;;;;;;11.52;7.40;;;20.20;99.90;;;;;;4988588;28;20142;-80
2021/08/19 10:52:52;;;;;;;14.48;9.98;;;20.30;98.90;;;;;;4989409;28;20037;-80
2021/08/19 10:55:19;;;;;;;11.95;7.90;;;20.10;99.60;;;;;;5004721;28;20374;-80
2021/08/19 10:57:54;;;;;;;13.13;10.35;;;20.40;99.20;;;;;;4987696;28;20033;-80
2021/08/19 11:00:35;;;;;;;12.40;9.60;;;20.50;99.90;;;;;;4992133;28;20037;-81
2021/08/19 11:03:00;;;;;;;11.60;9.50;;;20.70;98.70;;;;;;5003870;28;20472;-81
2021/08/19 11:05:26;;;;;;;10.23;8.15;;;20.70;99.60;;;;;;4971916;28;20049;-80
2021/08/19 11:07:53;;;;;;;8.93;7.13;;;21.00;99.40;;;;;;5007824;28;20057;-82
2021/08/19 11:10:28;;;;;;;11.55;7.18;;;21.00;97.60;;;;;;5006344;28;20037;-80
2021/08/19 11:13:00;;;;;;;11.38;8.07;;;21.20;99.90;;;;;;4987411;28;20045;-81
2021/08/19 11:15:25;;;;;;;13.25;9.35;;;21.30;97.60;;;;;;4973334;28;20030;-81
2021/08/19 11:17:55;;;;;;;13.35;8.50;;;21.60;99.30;;;;;;4985253;28;20030;-81
2021/08/19 11:20:24;;;;;;;16.75;7.82;;;21.70;98.00;;;;;;4968730;28;20037;-80
2021/08/19 11:23:08;;;;;;;12.73;8.55;;;21.90;97.40;;;;;;4985435;28;20045;-81
2021/08/19 11:25:35;;;;;;;9.85;7.30;;;22.10;97.90;;;;;;4996045;28;20030;-81
2021/08/19 11:28:17;;;;;;;12.73;8.30;;;22.20;96.30;;;;;;4984900;28;20042;-80
2021/08/19 11:30:47;;;;;;;10.05;7.47;;;22.50;98.30;;;;;;4969063;28;20117;-80
2021/08/19 11:33:13;;;;;;;9.77;6.85;;;22.70;96.80;;;;;;5003663;28;20061;-81
2021/08/19 11:35:39;;;;;;;8.00;5.70;;;22.20;95.90;;;;;;5010855;28;20053;-80
2021/08/19 11:38:12;;;;;;;8.57;5.80;;;22.20;95.30;;;;;;5005516;28;20030;-81
2021/08/19 11:40:39;;;;;;;7.47;5.43;;;21.80;95.30;;;;;;5001554;28;20027;-81
2021/08/19 11:43:18;;;;;;;6.03;5.40;;;21.60;96.00;;;;;;5005372;28;20046;-81
2021/08/19 11:45:44;;;;;;;7.35;5.63;;;22.10;95.20;;;;;;4309924;28;10000464;-80
2021/08/19 11:48:12;;;;;;;7.30;5.78;;;22.30;95.10;;;;;;4996431;28;20302;-81
2021/08/19 11:50:37;;;;;;;6.20;4.45;;;22.60;96.10;;;;;;4998461;28;20501;-80
2021/08/19 11:53:03;;;;;;;10.27;5.65;;;22.00;94.50;;;;;;4998888;28;20042;-80
2021/08/19 11:55:33;;;;;;;7.40;4.85;;;22.00;94.10;;;;;;5001384;28;20379;-81
2021/08/19 11:58:17;;;;;;;6.20;4.82;;;22.00;94.70;;;;;;4995726;28;20169;-81
2021/08/19 12:00:55;;;;;;;5.95;3.60;;;21.90;94.20;;;;;;4984106;28;20492;-80
2021/08/19 12:03:20;;;;;;;9.38;4.55;;;22.30;95.90;;;;;;5003275;28;20437;-80
2021/08/19 12:05:56;;;;;;;7.32;4.32;;;22.60;93.70;;;;;;5002282;28;20079;-80
2021/08/19 12:08:28;;;;;;;5.35;4.05;;;22.50;94.20;;;;;;4970894;28;20076;-79
2021/08/19 12:10:54;;;;;;;6.20;3.67;;;22.40;94.30;;;;;;4981397;28;20598;-80
2021/08/19 12:13:20;;;;;;;4.38;3.42;;;22.20;93.70;;;;;;4984884;28;20030;-80
2021/08/19 12:15:46;;;;;;;5.28;3.25;;;22.70;93.00;;;;;;4984921;28;20437;-80
2021/08/19 12:18:21;;;;;;;7.24;3.64;;;22.80;93.10;;;;;;4838330;28;10001113;-81
2021/08/19 12:20:48;;;;;;;5.88;3.65;;;23.10;94.70;;;;;;4640442;28;10000102;-80
2021/08/19 12:23:21;;;;;;;4.93;3.15;;;22.30;92.60;;;;;;4638195;28;10000410;-81
2021/08/19 12:25:47;;;;;;;4.35;3.60;;;22.70;93.00;;;;;;4985335;28;20030;-80
2021/08/19 12:28:13;;;;;;;4.55;3.10;;;22.20;92.10;;;;;;4970192;28;20560;-79
2021/08/19 12:30:59;;;;;;;4.03;3.63;;;22.50;94.40;;;;;;5000553;28;20434;-79
2021/08/19 12:33:29;;;;;;;5.40;3.17;;;23.20;92.70;;;;;;4983050;28;20057;-81